Time;durP1;ratioP1;P1;durP2;ratioP2;P2;SDS_P1;SDS_P2;PMS_P1;PMS_P2;Temp;Humidity;BMP_temperature;BMP_pressure;BME280_temperature;BME280_humidity;BME280_pressure;Samples;Min_cycle;Max_cycle;Signal;HPM_P1;HPM_P2
2023/07/29 00:01:01;;;;;;;8.70;6.05;;;;;;;18.40;100.00;100596.38;5073805;28;20047;-71
2023/07/29 00:03:26;;;;;;;6.88;6.13;;;;;;;18.52;100.00;100594.28;5074054;28;20024;-71
2023/07/29 00:05:52;;;;;;;6.75;6.05;;;;;;;18.49;100.00;100584.66;5111999;28;20130;-71
2023/07/29 00:08:17;;;;;;;7.82;6.13;;;;;;;18.57;100.00;100591.97;5093750;28;20121;-71
2023/07/29 00:10:43;;;;;;;6.30;5.70;;;;;;;18.60;100.00;100592.50;5112765;28;20111;-71
2023/07/29 00:13:08;;;;;;;6.63;6.03;;;;;;;18.55;100.00;100600.22;5093584;28;20452;-71
2023/07/29 00:15:33;;;;;;;10.27;6.68;;;;;;;18.57;100.00;100597.38;5093859;28;20027;-71
2023/07/29 00:18:00;;;;;;;7.15;6.35;;;;;;;18.47;100.00;100599.28;5111046;28;20023;-71
2023/07/29 00:20:25;;;;;;;8.60;6.10;;;;;;;18.39;100.00;100600.91;5112005;28;20023;-71
2023/07/29 00:22:53;;;;;;;8.43;6.35;;;;;;;18.40;100.00;100593.69;5112196;28;20106;-71
2023/07/29 00:25:19;;;;;;;9.65;6.30;;;;;;;18.45;100.00;100596.75;5111211;28;20027;-71
2023/07/29 00:27:44;;;;;;;9.90;6.22;;;;;;;18.52;100.00;100602.38;5112191;28;20556;-71
2023/07/29 00:30:10;;;;;;;7.88;6.28;;;;;;;18.55;100.00;100607.44;5111491;28;20487;-71
2023/07/29 00:32:36;;;;;;;8.70;6.18;;;;;;;18.50;100.00;100597.16;5112092;28;20031;-71
2023/07/29 00:35:02;;;;;;;9.77;6.13;;;;;;;18.35;100.00;100594.16;5092045;28;20531;-71
2023/07/29 00:37:30;;;;;;;7.70;6.35;;;;;;;18.43;100.00;100582.59;5110360;28;20110;-71
2023/07/29 00:39:59;;;;;;;6.80;6.25;;;;;;;18.41;100.00;100576.50;5110522;28;20027;-71
2023/07/29 00:42:24;;;;;;;6.40;5.80;;;;;;;18.38;100.00;100582.19;5109871;28;20062;-71
2023/07/29 00:44:50;;;;;;;6.93;6.05;;;;;;;18.33;100.00;100577.28;5093144;28;20378;-71
2023/07/29 00:47:16;;;;;;;8.52;6.20;;;;;;;18.29;100.00;100570.50;5111915;28;20486;-71
2023/07/29 00:49:44;;;;;;;8.18;7.38;;;;;;;18.26;100.00;100578.88;5111883;28;20494;-71
2023/07/29 00:52:12;;;;;;;7.18;6.10;;;;;;;18.27;100.00;100566.31;5093875;28;20028;-71
2023/07/29 00:54:39;;;;;;;7.78;6.45;;;;;;;18.27;100.00;100550.16;5111080;28;20114;-71
2023/07/29 00:57:06;;;;;;;7.30;6.60;;;;;;;18.15;100.00;100542.28;5093599;28;20481;-71
2023/07/29 00:59:31;;;;;;;7.25;6.55;;;;;;;18.20;100.00;100557.13;5111843;28;20034;-71
2023/07/29 01:01:57;;;;;;;8.63;6.93;;;;;;;18.20;100.00;100562.50;5111838;28;20019;-71
2023/07/29 01:04:23;;;;;;;7.88;6.93;;;;;;;18.10;100.00;100568.81;5076923;28;20036;-72
2023/07/29 01:07:03;;;;;;;8.80;7.38;;;;;;;18.21;100.00;100558.84;5097078;28;20023;-71
2023/07/29 01:09:38;;;;;;;7.95;6.45;;;;;;;18.13;100.00;100568.50;5094900;28;20036;-71
2023/07/29 01:12:22;;;;;;;8.07;7.38;;;;;;;18.15;100.00;100571.91;5095044;28;20024;-71
2023/07/29 01:15:16;;;;;;;9.30;7.57;;;;;;;18.17;100.00;100564.50;5113245;28;20072;-71
2023/07/29 01:18:14;;;;;;;9.02;7.75;;;;;;;18.22;100.00;100565.91;5113459;28;20023;-71
2023/07/29 01:20:42;;;;;;;9.15;7.78;;;;;;;18.05;100.00;100559.50;5114305;28;20038;-71
2023/07/29 01:23:10;;;;;;;9.35;8.23;;;;;;;18.11;100.00;100572.34;5112935;28;20475;-71
2023/07/29 01:25:35;;;;;;;9.25;8.10;;;;;;;18.07;100.00;100570.97;5113740;28;20027;-71
2023/07/29 01:28:01;;;;;;;8.50;7.72;;;;;;;18.05;100.00;100573.81;5114546;28;20042;-71
2023/07/29 01:30:33;;;;;;;8.40;7.55;;;;;;;18.07;100.00;100579.03;5113427;28;20043;-71
2023/07/29 01:33:18;;;;;;;8.02;7.25;;;;;;;18.07;100.00;100577.19;5096752;28;20940;-71
2023/07/29 01:35:58;;;;;;;9.95;7.43;;;;;;;17.97;100.00;100586.31;5104423;28;20379;-71
2023/07/29 01:38:35;;;;;;;7.70;7.00;;;;;;;17.93;100.00;100580.41;5114496;28;20019;-71
2023/07/29 01:41:02;;;;;;;7.72;6.80;;;;;;;17.80;100.00;100577.25;5113375;28;20034;-71
2023/07/29 01:43:29;;;;;;;8.50;7.00;;;;;;;17.79;100.00;100581.75;5113026;28;20051;-72
2023/07/29 01:45:55;;;;;;;9.13;6.80;;;;;;;17.78;100.00;100587.28;5095751;28;20122;-72
2023/07/29 01:48:20;;;;;;;7.13;6.43;;;;;;;17.75;100.00;100583.03;5113367;28;20106;-72
2023/07/29 01:50:46;;;;;;;7.50;6.82;;;;;;;17.73;100.00;100587.69;5095833;28;20027;-72
2023/07/29 01:53:11;;;;;;;6.93;6.22;;;;;;;17.67;100.00;100583.75;5113290;28;20015;-72
2023/07/29 01:55:37;;;;;;;9.18;6.13;;;;;;;17.61;100.00;100576.28;5113016;28;20455;-71
2023/07/29 01:58:02;;;;;;;7.72;6.32;;;;;;;17.67;100.00;100588.28;5094635;28;20032;-72
2023/07/29 02:00:27;;;;;;;6.53;5.93;;;;;;;17.64;100.00;100575.97;5113662;28;20449;-71
2023/07/29 02:02:53;;;;;;;7.07;5.95;;;;;;;17.69;100.00;100576.41;5094715;28;20038;-72
2023/07/29 02:05:20;;;;;;;6.60;5.70;;;;;;;17.78;100.00;100587.28;5113364;28;20383;-71
2023/07/29 02:07:46;;;;;;;5.57;5.07;;;;;;;17.68;100.00;100573.88;5113080;28;20028;-71
2023/07/29 02:10:11;;;;;;;6.40;5.40;;;;;;;17.78;99.83;100580.06;5113312;28;20026;-71
2023/07/29 02:12:37;;;;;;;5.78;5.28;;;;;;;17.73;99.00;100579.63;5114643;28;20120;-72
2023/07/29 02:15:03;;;;;;;5.20;4.53;;;;;;;17.71;98.50;100574.41;5111948;28;20058;-72
2023/07/29 02:17:28;;;;;;;6.57;4.80;;;;;;;17.78;99.14;100577.38;5111945;28;20027;-71
2023/07/29 02:19:54;;;;;;;5.82;5.15;;;;;;;17.74;97.12;100567.88;5113399;28;20023;-71
2023/07/29 02:22:19;;;;;;;6.68;4.38;;;;;;;17.74;97.47;100570.56;5114297;28;20042;-72
2023/07/29 02:24:45;;;;;;;6.72;4.50;;;;;;;17.73;97.44;100576.09;5112204;28;20030;-71
2023/07/29 02:27:11;;;;;;;6.00;5.25;;;;;;;17.72;97.74;100572.56;5113350;28;20027;-71
2023/07/29 02:29:36;;;;;;;6.22;4.95;;;;;;;17.73;97.51;100571.56;5112284;28;20044;-72
2023/07/29 02:32:04;;;;;;;7.35;4.70;;;;;;;17.78;97.42;100563.09;5113273;28;20073;-72
2023/07/29 02:34:32;;;;;;;4.78;4.38;;;;;;;17.75;97.82;100563.34;5093697;28;20031;-72
2023/07/29 02:36:58;;;;;;;6.80;4.25;;;;;;;17.67;97.93;100573.00;5112667;28;20031;-71
2023/07/29 02:39:23;;;;;;;5.15;4.75;;;;;;;17.59;98.58;100572.91;5112307;28;20471;-71
2023/07/29 02:41:49;;;;;;;5.72;4.63;;;;;;;17.53;98.65;100576.22;5093763;28;20097;-72
2023/07/29 02:44:15;;;;;;;6.85;4.97;;;;;;;17.52;98.78;100569.13;5112750;28;20571;-72
2023/07/29 02:46:41;;;;;;;6.45;4.70;;;;;;;17.60;98.39;100563.00;5112606;28;20028;-71
2023/07/29 02:49:06;;;;;;;5.90;5.15;;;;;;;17.53;97.78;100562.75;5112503;28;20116;-71
2023/07/29 02:51:31;;;;;;;5.97;5.38;;;;;;;17.60;97.92;100554.94;5095414;28;20106;-72
2023/07/29 02:53:57;;;;;;;7.25;5.05;;;;;;;17.44;99.01;100563.63;5112773;28;20023;-71
2023/07/29 02:56:22;;;;;;;8.45;4.78;;;;;;;17.47;99.08;100558.81;5095385;28;20031;-72
2023/07/29 02:58:48;;;;;;;6.13;5.63;;;;;;;17.49;98.58;100558.66;5095208;28;20034;-72
2023/07/29 03:01:13;;;;;;;6.25;5.30;;;;;;;17.53;98.80;100551.13;5113931;28;20600;-72
2023/07/29 03:03:39;;;;;;;5.85;4.97;;;;;;;17.42;99.30;100558.41;5113409;28;20385;-72
2023/07/29 03:06:08;;;;;;;6.18;5.32;;;;;;;17.37;100.00;100549.94;5112981;28;20114;-71
2023/07/29 03:08:35;;;;;;;7.40;5.55;;;;;;;17.42;99.29;100557.56;5094328;28;20027;-71
2023/07/29 03:11:10;;;;;;;6.88;5.35;;;;;;;17.42;99.35;100561.09;5113478;28;20039;-71
2023/07/29 03:13:35;;;;;;;6.45;5.80;;;;;;;17.41;99.34;100547.78;5113372;28;20023;-71
2023/07/29 03:16:12;;;;;;;7.68;5.72;;;;;;;17.42;99.46;100552.19;5113054;28;20065;-71
2023/07/29 03:18:38;;;;;;;6.70;5.68;;;;;;;17.27;99.05;100545.63;5094661;28;20043;-71
2023/07/29 03:21:04;;;;;;;6.50;5.43;;;;;;;17.34;99.59;100563.69;5113038;28;20024;-71
2023/07/29 03:23:31;;;;;;;7.18;5.70;;;;;;;17.25;99.74;100564.56;5094377;28;20020;-71
2023/07/29 03:25:58;;;;;;;6.65;5.75;;;;;;;17.25;99.26;100575.31;5112220;28;20106;-71
2023/07/29 03:28:29;;;;;;;6.15;5.43;;;;;;;17.27;99.40;100576.03;5110766;28;20774;-71
2023/07/29 03:30:55;;;;;;;9.25;5.50;;;;;;;17.22;99.41;100572.91;5090082;28;20039;-72
2023/07/29 03:33:20;;;;;;;6.90;6.22;;;;;;;17.21;99.77;100565.88;5110422;28;20024;-71
2023/07/29 03:35:46;;;;;;;7.05;6.05;;;;;;;17.08;99.95;100558.09;5091164;28;20043;-71
2023/07/29 03:38:12;;;;;;;6.45;5.85;;;;;;;17.14;99.41;100573.63;5110908;28;20024;-71
2023/07/29 03:40:40;;;;;;;8.55;5.65;;;;;;;17.16;99.42;100570.81;5094581;28;20134;-71
2023/07/29 03:43:06;;;;;;;6.97;5.95;;;;;;;17.10;98.99;100560.66;5111771;28;20030;-72
2023/07/29 03:45:32;;;;;;;6.68;5.95;;;;;;;17.12;99.51;100564.03;5091024;28;20015;-71
2023/07/29 03:47:58;;;;;;;6.60;5.70;;;;;;;17.10;98.91;100571.41;5093294;28;20489;-71
2023/07/29 03:50:24;;;;;;;9.70;5.90;;;;;;;17.08;99.11;100576.06;5111365;28;20106;-71
2023/07/29 03:52:49;;;;;;;6.43;5.20;;;;;;;17.11;99.12;100567.72;5112151;28;20031;-71
2023/07/29 03:55:15;;;;;;;6.78;5.63;;;;;;;17.07;98.86;100550.19;5111847;28;20024;-72
2023/07/29 03:57:40;;;;;;;5.97;5.47;;;;;;;17.00;99.48;100539.16;5112243;28;20012;-71
2023/07/29 04:00:09;;;;;;;7.40;5.43;;;;;;;17.03;99.45;100522.78;5112198;28;20020;-71
2023/07/29 04:02:37;;;;;;;6.93;5.25;;;;;;;17.03;99.62;100528.16;5112647;28;20020;-71
2023/07/29 04:05:08;;;;;;;6.73;6.03;;;;;;;17.05;99.59;100536.06;5112068;28;20023;-71
2023/07/29 04:07:36;;;;;;;6.03;5.30;;;;;;;16.96;100.00;100518.97;5094075;28;20027;-71
2023/07/29 04:10:02;;;;;;;6.10;5.50;;;;;;;16.98;100.00;100519.69;5093654;28;20020;-71
2023/07/29 04:12:28;;;;;;;7.43;5.65;;;;;;;16.90;100.00;100516.88;5077294;28;20061;-71
2023/07/29 04:14:53;;;;;;;6.88;5.32;;;;;;;16.91;100.00;100518.56;5111942;28;20059;-71
2023/07/29 04:17:21;;;;;;;7.63;5.75;;;;;;;16.87;100.00;100526.06;5112284;28;20023;-71
2023/07/29 04:19:46;;;;;;;6.57;5.43;;;;;;;16.94;100.00;100550.50;5112033;28;20103;-72
2023/07/29 04:22:14;;;;;;;7.72;6.40;;;;;;;16.83;100.00;100562.28;5112369;28;20057;-72
2023/07/29 04:24:42;;;;;;;6.43;5.82;;;;;;;16.85;100.00;100573.72;5111417;28;20016;-71
2023/07/29 04:27:08;;;;;;;10.70;6.22;;;;;;;16.85;100.00;100575.56;5110819;28;20032;-71
2023/07/29 04:29:35;;;;;;;6.75;5.40;;;;;;;16.87;100.00;100573.56;5110122;28;20556;-72
2023/07/29 04:32:01;;;;;;;6.72;5.45;;;;;;;16.84;100.00;100572.03;5109986;28;20020;-71
2023/07/29 04:34:27;;;;;;;7.18;5.30;;;;;;;16.84;100.00;100565.81;5093189;28;20372;-71
2023/07/29 04:36:52;;;;;;;11.05;5.30;;;;;;;16.86;100.00;100563.84;5108236;28;20055;-71
2023/07/29 04:39:18;;;;;;;7.45;5.35;;;;;;;16.89;100.00;100576.97;5090413;28;20024;-71
2023/07/29 04:41:43;;;;;;;5.57;5.07;;;;;;;16.83;100.00;100573.03;5094913;28;20028;-71
2023/07/29 04:44:08;;;;;;;5.05;4.55;;;;;;;16.84;99.89;100588.13;5113666;28;20023;-71
2023/07/29 04:46:35;;;;;;;8.05;5.15;;;;;;;16.74;100.00;100573.84;5096667;28;20059;-71
2023/07/29 04:49:03;;;;;;;5.30;4.80;;;;;;;16.86;99.83;100579.94;5113940;28;20024;-72
2023/07/29 04:51:31;;;;;;;5.30;4.40;;;;;;;16.86;99.76;100590.69;5114732;28;20379;-71
2023/07/29 04:53:57;;;;;;;4.73;4.30;;;;;;;16.88;99.36;100586.00;5114991;28;20026;-71
2023/07/29 04:56:22;;;;;;;5.72;4.75;;;;;;;16.85;98.81;100586.28;5088005;28;20293;-72
2023/07/29 04:58:48;;;;;;;4.80;4.40;;;;;;;16.86;99.14;100588.00;5097401;28;20542;-72
2023/07/29 05:01:13;;;;;;;4.47;4.10;;;;;;;16.88;99.22;100599.44;5091434;28;20031;-72
2023/07/29 05:03:39;;;;;;;5.43;4.55;;;;;;;16.83;98.89;100591.81;5095091;28;20132;-72
2023/07/29 05:06:05;;;;;;;4.85;4.13;;;;;;;16.88;98.83;100599.44;5091542;28;20110;-72
2023/07/29 05:08:30;;;;;;;6.13;4.40;;;;;;;16.88;98.98;100605.66;5096584;28;20139;-72
2023/07/29 05:10:56;;;;;;;6.18;4.47;;;;;;;16.89;98.63;100599.31;5096879;28;20026;-71
2023/07/29 05:13:22;;;;;;;6.28;4.30;;;;;;;16.88;98.40;100611.03;5096992;28;20114;-71
2023/07/29 05:15:48;;;;;;;4.72;4.18;;;;;;;16.89;98.55;100610.06;5096918;28;20031;-72
2023/07/29 05:18:14;;;;;;;6.82;4.00;;;;;;;16.89;98.08;100607.38;5115105;28;20023;-72
2023/07/29 05:20:40;;;;;;;5.20;4.25;;;;;;;16.99;97.45;100612.72;5096791;28;20077;-72
2023/07/29 05:23:07;;;;;;;4.60;4.20;;;;;;;16.89;98.18;100611.91;5096701;28;20513;-71
2023/07/29 05:25:35;;;;;;;5.18;4.28;;;;;;;16.85;97.53;100597.88;5114668;28;20031;-72
2023/07/29 05:28:01;;;;;;;4.78;4.47;;;;;;;16.89;97.74;100601.16;5098882;28;20032;-72
2023/07/29 05:30:30;;;;;;;7.03;4.45;;;;;;;16.80;97.68;100594.81;5076350;28;20051;-72
2023/07/29 05:32:57;;;;;;;4.50;4.10;;;;;;;16.84;97.59;100596.19;5094616;28;20498;-72
2023/07/29 05:35:22;;;;;;;4.95;4.45;;;;;;;16.92;98.45;100607.09;5101483;28;20042;-72
2023/07/29 05:37:47;;;;;;;5.45;4.20;;;;;;;16.97;97.27;100607.50;5115247;28;20024;-72
2023/07/29 05:40:13;;;;;;;6.13;4.35;;;;;;;16.97;97.51;100598.56;5114418;28;20024;-72
2023/07/29 05:42:38;;;;;;;6.72;4.55;;;;;;;17.01;96.92;100595.47;5096846;28;20443;-71
2023/07/29 05:45:04;;;;;;;7.18;4.10;;;;;;;17.06;97.17;100597.72;5114319;28;20059;-72
2023/07/29 05:47:32;;;;;;;4.93;4.47;;;;;;;17.17;97.50;100594.84;5096412;28;20043;-72
2023/07/29 05:49:57;;;;;;;5.03;4.53;;;;;;;17.30;95.89;100607.16;5093920;28;20024;-72
2023/07/29 05:52:23;;;;;;;6.40;4.53;;;;;;;17.30;96.24;100596.41;5074704;28;20169;-72
2023/07/29 05:54:50;;;;;;;4.63;4.22;;;;;;;17.41;95.66;100612.31;5100885;28;20031;-72
2023/07/29 05:57:16;;;;;;;5.07;4.55;;;;;;;17.55;95.74;100606.47;5114672;28;20028;-72
2023/07/29 05:59:41;;;;;;;5.72;5.13;;;;;;;17.61;95.06;100610.41;5114405;28;20023;-72
2023/07/29 06:02:09;;;;;;;5.00;4.50;;;;;;;17.67;94.48;100601.75;5096070;28;20032;-72
2023/07/29 06:04:34;;;;;;;4.40;4.00;;;;;;;17.67;93.77;100607.13;5114236;28;20020;-72
2023/07/29 06:07:00;;;;;;;4.55;4.10;;;;;;;17.75;94.84;100604.53;5114053;28;20544;-72
2023/07/29 06:09:25;;;;;;;5.78;4.15;;;;;;;17.84;94.48;100598.28;5095773;28;20030;-72
2023/07/29 06:11:51;;;;;;;5.30;3.80;;;;;;;17.94;93.29;100603.59;5114653;28;20027;-72
2023/07/29 06:14:16;;;;;;;4.65;3.47;;;;;;;17.98;92.93;100610.41;5114285;28;20032;-72
2023/07/29 06:16:42;;;;;;;5.25;3.55;;;;;;;18.02;92.72;100590.25;5096104;28;20023;-72
2023/07/29 06:19:09;;;;;;;4.70;3.47;;;;;;;18.26;91.82;100611.19;5114181;28;20055;-72
2023/07/29 06:21:35;;;;;;;4.30;3.88;;;;;;;18.31;91.53;100598.13;5096170;28;20035;-72
2023/07/29 06:24:01;;;;;;;7.88;3.90;;;;;;;18.28;91.66;100593.06;5113252;28;20386;-72
2023/07/29 06:26:26;;;;;;;5.22;4.22;;;;;;;18.21;91.77;100586.59;5113273;28;20019;-72
2023/07/29 06:28:52;;;;;;;4.35;3.95;;;;;;;18.23;91.24;100599.91;5095802;28;20396;-72
2023/07/29 06:31:17;;;;;;;9.40;4.00;;;;;;;18.18;91.35;100595.00;5095666;28;20181;-72
2023/07/29 06:33:45;;;;;;;4.90;3.78;;;;;;;18.20;91.96;100602.91;5114072;28;20500;-72
2023/07/29 06:36:11;;;;;;;4.63;3.63;;;;;;;18.27;92.47;100598.59;5114170;28;20072;-72
2023/07/29 06:38:38;;;;;;;5.10;3.92;;;;;;;18.43;92.16;100595.22;5113604;28;20457;-72
2023/07/29 06:41:04;;;;;;;4.38;3.85;;;;;;;18.56;90.63;100598.34;5112612;28;20032;-72
2023/07/29 06:43:29;;;;;;;6.72;3.83;;;;;;;18.55;90.15;100588.59;5112534;28;20046;-72
2023/07/29 06:45:55;;;;;;;3.97;3.60;;;;;;;18.59;89.95;100595.38;5110466;28;20426;-72
2023/07/29 06:48:21;;;;;;;4.65;3.75;;;;;;;18.51;90.35;100601.53;5113557;28;20035;-72
2023/07/29 06:50:46;;;;;;;3.95;3.38;;;;;;;18.70;90.93;100613.97;5095484;28;20020;-72
2023/07/29 06:53:11;;;;;;;3.60;3.38;;;;;;;18.86;90.58;100612.47;5112931;28;20110;-72
2023/07/29 06:55:37;;;;;;;3.78;3.33;;;;;;;18.90;88.74;100603.06;5096366;28;20421;-72
2023/07/29 06:58:03;;;;;;;4.70;3.63;;;;;;;18.83;88.35;100625.25;5095182;28;20043;-72
2023/07/29 07:00:30;;;;;;;4.50;3.50;;;;;;;18.86;87.92;100618.69;5113091;28;20020;-72
2023/07/29 07:02:55;;;;;;;4.47;3.13;;;;;;;19.09;88.25;100624.44;5113616;28;20420;-72
2023/07/29 07:05:21;;;;;;;4.60;3.47;;;;;;;19.08;88.21;100621.88;5113074;28;20096;-72
2023/07/29 07:07:46;;;;;;;4.35;3.42;;;;;;;19.13;88.40;100628.50;5095398;28;20080;-72
2023/07/29 07:10:14;;;;;;;5.85;3.45;;;;;;;19.01;86.34;100614.44;5094505;28;20566;-72
2023/07/29 07:12:41;;;;;;;4.15;3.35;;;;;;;18.96;86.72;100624.84;5113771;28;20028;-72
2023/07/29 07:15:07;;;;;;;6.40;3.78;;;;;;;18.87;87.77;100630.31;5112855;28;20016;-72
2023/07/29 07:17:33;;;;;;;4.88;3.72;;;;;;;18.86;87.73;100618.69;5096128;28;20023;-72
2023/07/29 07:20:01;;;;;;;4.82;3.40;;;;;;;18.84;88.07;100624.22;5094584;28;20028;-72
2023/07/29 07:22:28;;;;;;;4.47;3.38;;;;;;;18.90;87.90;100630.00;5113245;28;20054;-72
2023/07/29 07:24:56;;;;;;;7.18;3.47;;;;;;;18.98;88.17;100628.22;5112344;28;20028;-72
2023/07/29 07:27:24;;;;;;;3.67;3.38;;;;;;;19.08;86.80;100632.66;5113089;28;20087;-72
2023/07/29 07:29:50;;;;;;;5.97;3.30;;;;;;;19.16;87.44;100635.44;5110952;28;20039;-72
2023/07/29 07:32:15;;;;;;;4.70;3.83;;;;;;;19.17;87.14;100631.72;5113148;28;20277;-72
2023/07/29 07:34:40;;;;;;;5.25;3.72;;;;;;;19.31;86.58;100635.69;5112761;28;20104;-72
2023/07/29 07:37:08;;;;;;;5.45;3.70;;;;;;;19.25;85.90;100646.09;5112519;28;20439;-72
2023/07/29 07:39:33;;;;;;;6.85;3.58;;;;;;;19.22;86.31;100634.78;5112358;28;20019;-72
2023/07/29 07:41:59;;;;;;;7.20;3.60;;;;;;;19.23;85.65;100637.31;5112796;28;20382;-72
2023/07/29 07:44:26;;;;;;;3.58;3.28;;;;;;;19.25;85.44;100647.97;5112470;28;20030;-72
2023/07/29 07:46:53;;;;;;;4.03;3.00;;;;;;;19.35;85.77;100653.25;5112783;28;20115;-72
2023/07/29 07:49:22;;;;;;;4.18;3.35;;;;;;;19.59;85.92;100642.63;5112262;28;20055;-72
2023/07/29 07:51:47;;;;;;;3.28;2.85;;;;;;;19.78;84.36;100659.59;5112590;28;20054;-72
2023/07/29 07:54:12;;;;;;;3.45;2.85;;;;;;;19.98;83.94;100654.81;5093809;28;20451;-71
2023/07/29 07:56:38;;;;;;;5.18;2.75;;;;;;;20.05;83.68;100661.25;5112163;28;20032;-71
2023/07/29 07:59:03;;;;;;;4.50;2.90;;;;;;;20.09;80.92;100652.66;5111874;28;20031;-72
2023/07/29 08:01:37;;;;;;;4.30;2.90;;;;;;;20.04;81.10;100654.16;5094059;28;20023;-72
2023/07/29 08:04:03;;;;;;;3.60;2.97;;;;;;;20.02;81.08;100640.81;5093614;28;20059;-72
2023/07/29 08:06:30;;;;;;;3.92;2.78;;;;;;;20.06;81.38;100642.19;5112309;28;20081;-72
2023/07/29 08:08:55;;;;;;;3.40;3.10;;;;;;;20.21;80.40;100655.91;5104850;28;20032;-71
2023/07/29 08:11:21;;;;;;;3.65;2.53;;;;;;;20.25;78.71;100640.22;5109897;28;20012;-72
2023/07/29 08:13:46;;;;;;;4.53;2.55;;;;;;;20.26;78.62;100645.44;5085570;28;20475;-71
2023/07/29 08:16:14;;;;;;;2.95;2.63;;;;;;;20.38;79.09;100654.06;5106795;28;20100;-72
2023/07/29 08:18:40;;;;;;;3.45;2.67;;;;;;;20.31;78.11;100653.88;5094013;28;20027;-72
2023/07/29 08:21:05;;;;;;;2.72;2.40;;;;;;;20.18;76.95;100665.19;5073458;28;20467;-72
2023/07/29 08:23:35;;;;;;;2.95;2.42;;;;;;;20.12;78.65;100660.44;5091464;28;20463;-72
2023/07/29 08:26:04;;;;;;;3.15;2.17;;;;;;;20.14;77.97;100663.78;5108241;28;20535;-72
2023/07/29 08:28:37;;;;;;;2.40;2.10;;;;;;;20.08;79.37;100672.56;5111944;28;20165;-72
2023/07/29 08:31:03;;;;;;;2.13;1.83;;;;;;;19.94;78.12;100665.06;5111783;28;20031;-72
2023/07/29 08:33:29;;;;;;;4.63;2.47;;;;;;;19.85;78.79;100668.72;5112081;28;20026;-72
2023/07/29 08:35:55;;;;;;;2.45;2.25;;;;;;;19.77;79.72;100656.06;5111699;28;20083;-72
2023/07/29 08:38:21;;;;;;;2.38;2.00;;;;;;;19.85;80.59;100666.03;5111870;28;20098;-72
2023/07/29 08:40:57;;;;;;;2.40;2.20;;;;;;;19.84;80.41;100657.09;5093613;28;20046;-72
2023/07/29 08:43:30;;;;;;;3.35;2.42;;;;;;;19.77;79.39;100664.16;5093574;28;20419;-72
2023/07/29 08:45:57;;;;;;;4.80;2.90;;;;;;;19.73;79.17;100652.81;5111905;28;20076;-72
2023/07/29 08:48:48;;;;;;;2.72;2.35;;;;;;;20.00;79.07;100650.06;5111815;28;20064;-72
2023/07/29 08:51:17;;;;;;;2.80;2.60;;;;;;;20.31;78.96;100653.06;5111458;28;20032;-72
2023/07/29 08:53:43;;;;;;;3.05;2.67;;;;;;;20.52;77.49;100648.06;5093471;28;20027;-71
2023/07/29 08:56:08;;;;;;;2.70;2.50;;;;;;;20.65;74.13;100653.00;5111112;28;20038;-72
2023/07/29 08:58:35;;;;;;;4.28;2.30;;;;;;;20.83;74.37;100659.09;5111742;28;20469;-72
2023/07/29 09:01:00;;;;;;;3.10;2.53;;;;;;;20.75;73.65;100650.97;5111482;28;20024;-72
2023/07/29 09:03:26;;;;;;;4.82;3.03;;;;;;;20.83;73.38;100660.94;5092961;28;20027;-72
2023/07/29 09:05:57;;;;;;;2.47;2.20;;;;;;;20.86;73.94;100658.75;5111054;28;20020;-72
2023/07/29 09:08:24;;;;;;;2.58;2.38;;;;;;;20.98;73.37;100653.84;5110811;28;20028;-72
2023/07/29 09:10:49;;;;;;;3.05;2.20;;;;;;;21.04;75.02;100652.31;5111447;28;20391;-72
2023/07/29 09:13:17;;;;;;;3.17;2.17;;;;;;;21.05;72.93;100654.00;5111594;28;20105;-72
2023/07/29 09:15:43;;;;;;;3.20;2.13;;;;;;;21.15;73.33;100656.53;5111458;28;20374;-72
2023/07/29 09:18:10;;;;;;;4.35;2.10;;;;;;;21.27;73.94;100641.66;5110202;28;20016;-72
2023/07/29 09:20:36;;;;;;;2.00;1.80;;;;;;;21.46;71.86;100646.69;5111716;28;20470;-71
2023/07/29 09:23:04;;;;;;;3.85;1.95;;;;;;;21.41;71.64;100637.41;5111101;28;20068;-71
2023/07/29 09:25:30;;;;;;;1.80;1.70;;;;;;;21.44;72.87;100642.47;5108369;28;20439;-71
2023/07/29 09:28:07;;;;;;;2.92;1.95;;;;;;;21.70;72.91;100642.25;5109429;28;20027;-71
2023/07/29 09:30:32;;;;;;;4.45;2.10;;;;;;;21.83;72.96;100641.72;5108256;28;20043;-72
2023/07/29 09:32:59;;;;;;;2.40;2.20;;;;;;;21.90;69.46;100648.09;5115270;28;20036;-71
2023/07/29 09:35:29;;;;;;;2.58;1.70;;;;;;;22.17;69.01;100644.09;5114154;28;20445;-71
2023/07/29 09:37:55;;;;;;;2.08;1.88;;;;;;;22.00;68.71;100632.47;5114341;28;20077;-72
2023/07/29 09:40:20;;;;;;;3.00;1.70;;;;;;;21.94;69.09;100634.03;5095168;28;20421;-72
2023/07/29 09:42:51;;;;;;;4.20;1.80;;;;;;;21.87;70.73;100643.03;5112126;28;20039;-72
2023/07/29 09:45:20;;;;;;;2.00;1.80;;;;;;;21.63;70.96;100639.41;5095171;28;20115;-72
2023/07/29 09:47:46;;;;;;;3.15;1.63;;;;;;;21.55;71.98;100639.41;5115279;28;20027;-72
2023/07/29 09:50:12;;;;;;;3.70;1.80;;;;;;;21.35;70.90;100636.22;5094814;28;20386;-72
2023/07/29 09:52:37;;;;;;;2.63;2.10;;;;;;;21.18;71.81;100656.19;5094648;28;20059;-72
2023/07/29 09:55:08;;;;;;;1.92;1.83;;;;;;;21.04;74.20;100650.47;5075758;28;20085;-72
2023/07/29 09:57:35;;;;;;;4.93;2.30;;;;;;;21.09;74.03;100658.06;5087131;28;20032;-72
2023/07/29 10:00:04;;;;;;;2.50;2.30;;;;;;;21.03;74.09;100659.59;5111290;28;20023;-72
2023/07/29 10:02:30;;;;;;;2.08;1.90;;;;;;;21.05;74.56;100659.41;5114297;28;20088;-72
2023/07/29 10:04:56;;;;;;;4.97;2.40;;;;;;;21.04;75.57;100658.56;5094641;28;20019;-72
2023/07/29 10:07:24;;;;;;;3.10;2.08;;;;;;;21.03;73.08;100648.78;5109582;28;20023;-72
2023/07/29 10:09:52;;;;;;;4.30;2.33;;;;;;;21.23;73.65;100637.59;5111953;28;20102;-72
2023/07/29 10:12:18;;;;;;;2.30;2.08;;;;;;;21.42;71.77;100631.00;5113456;28;20035;-72
2023/07/29 10:14:44;;;;;;;2.17;1.98;;;;;;;21.89;72.11;100635.59;5079441;28;20028;-72
2023/07/29 10:17:10;;;;;;;3.67;2.00;;;;;;;22.12;70.92;100643.75;5114129;28;20110;-72
2023/07/29 10:19:37;;;;;;;3.38;1.95;;;;;;;22.28;69.73;100648.28;5096084;28;20028;-72
2023/07/29 10:22:03;;;;;;;3.10;2.00;;;;;;;22.54;68.85;100635.25;5114366;28;20069;-72
2023/07/29 10:24:33;;;;;;;3.78;2.00;;;;;;;22.80;67.60;100637.59;5094744;28;20462;-72
2023/07/29 10:27:00;;;;;;;2.13;1.88;;;;;;;22.74;67.44;100642.91;5097250;28;20059;-72
2023/07/29 10:29:34;;;;;;;2.40;2.20;;;;;;;22.93;65.11;100633.41;5113267;28;20457;-72
2023/07/29 10:32:03;;;;;;;4.22;2.10;;;;;;;23.33;64.73;100641.22;5079448;28;20022;-72
2023/07/29 10:34:31;;;;;;;2.20;2.00;;;;;;;23.68;62.86;100638.81;5113105;28;20062;-72
2023/07/29 10:36:57;;;;;;;3.33;2.10;;;;;;;23.89;62.11;100629.06;5094727;28;20024;-72
2023/07/29 10:39:24;;;;;;;2.97;1.98;;;;;;;23.99;62.91;100626.91;5113403;28;20068;-72
2023/07/29 10:42:05;;;;;;;6.30;2.20;;;;;;;24.28;63.08;100622.44;5095717;28;20024;-72
2023/07/29 10:44:40;;;;;;;3.22;2.55;;;;;;;24.21;61.18;100617.75;5110085;28;20060;-72
2023/07/29 10:47:12;;;;;;;2.65;2.00;;;;;;;23.90;61.28;100619.88;5095251;28;20035;-72
2023/07/29 10:49:40;;;;;;;3.08;1.77;;;;;;;23.70;61.64;100615.03;5113817;28;20024;-72
2023/07/29 10:52:06;;;;;;;1.80;1.70;;;;;;;23.49;62.12;100609.47;5112471;28;20024;-72
2023/07/29 10:54:50;;;;;;;2.45;1.90;;;;;;;23.23;61.99;100621.63;5095158;28;20028;-72
2023/07/29 10:57:30;;;;;;;3.15;2.00;;;;;;;23.14;62.86;100609.16;5093568;28;20360;-72
2023/07/29 10:59:56;;;;;;;2.88;2.08;;;;;;;23.03;63.89;100628.59;5093073;28;20024;-72
2023/07/29 11:02:29;;;;;;;2.40;1.95;;;;;;;22.86;65.57;100614.31;5074975;28;20027;-72
2023/07/29 11:04:54;;;;;;;2.35;2.05;;;;;;;22.75;65.75;100618.31;5103915;28;20505;-71
2023/07/29 11:07:26;;;;;;;4.07;2.05;;;;;;;22.72;65.31;100625.97;5110266;28;20063;-71
2023/07/29 11:09:57;;;;;;;3.95;2.10;;;;;;;22.63;65.60;100619.75;5109233;28;20103;-71
2023/07/29 11:12:50;;;;;;;2.40;2.20;;;;;;;22.60;67.14;100622.84;5112138;28;20038;-72
2023/07/29 11:15:22;;;;;;;3.10;2.00;;;;;;;22.49;66.50;100628.66;5094758;28;20034;-72
2023/07/29 11:17:59;;;;;;;1.83;1.73;;;;;;;22.42;67.91;100633.97;5113313;28;20024;-72
2023/07/29 11:20:32;;;;;;;2.53;1.88;;;;;;;22.38;67.66;100630.78;5111970;28;20059;-72
2023/07/29 11:23:01;;;;;;;3.08;2.20;;;;;;;22.37;66.63;100623.66;5094971;28;20463;-72
2023/07/29 11:25:30;;;;;;;2.42;2.00;;;;;;;22.43;67.24;100631.06;5112289;28;20157;-72